sensor_id;sensor_type;location;lat;lon;timestamp;P1;P2;P0
49644;PMS5003;36494;50.730;-1.932;2023-03-14T00:00:32;4;3;
49644;PMS5003;36494;50.730;-1.932;2023-03-14T00:02:57;4;3;
49644;PMS5003;36494;50.730;-1.932;2023-03-14T00:05:23;3;3;
49644;PMS5003;36494;50.730;-1.932;2023-03-14T00:07:48;3;3;
49644;PMS5003;36494;50.730;-1.932;2023-03-14T00:10:14;2;2;
49644;PMS5003;36494;50.730;-1.932;2023-03-14T00:12:39;1;1;
49644;PMS5003;36494;50.730;-1.932;2023-03-14T00:15:05;2;2;
49644;PMS5003;36494;50.730;-1.932;2023-03-14T00:17:31;1;1;
49644;PMS5003;36494;50.730;-1.932;2023-03-14T00:19:55;0;0;
49644;PMS5003;36494;50.730;-1.932;2023-03-14T00:22:21;1;1;
49644;PMS5003;36494;50.730;-1.932;2023-03-14T00:24:46;1;0;
49644;PMS5003;36494;50.730;-1.932;2023-03-14T00:27:11;3;2;
49644;PMS5003;36494;50.730;-1.932;2023-03-14T00:29:36;1;1;
49644;PMS5003;36494;50.730;-1.932;2023-03-14T00:32:02;1;1;
49644;PMS5003;36494;50.730;-1.932;2023-03-14T00:34:28;0;0;
49644;PMS5003;36494;50.730;-1.932;2023-03-14T00:36:53;0;0;
49644;PMS5003;36494;50.730;-1.932;2023-03-14T00:39:18;0;0;
49644;PMS5003;36494;50.730;-1.932;2023-03-14T00:41:44;0;0;
49644;PMS5003;36494;50.730;-1.932;2023-03-14T00:44:09;0;0;
49644;PMS5003;36494;50.730;-1.932;2023-03-14T00:46:34;1;1;
49644;PMS5003;36494;50.730;-1.932;2023-03-14T00:48:59;0;0;
49644;PMS5003;36494;50.730;-1.932;2023-03-14T00:51:25;1;1;
49644;PMS5003;36494;50.730;-1.932;2023-03-14T00:53:50;0;0;
49644;PMS5003;36494;50.730;-1.932;2023-03-14T00:56:16;1;1;
49644;PMS5003;36494;50.730;-1.932;2023-03-14T00:58:41;1;1;
49644;PMS5003;36494;50.730;-1.932;2023-03-14T01:01:07;1;1;
49644;PMS5003;36494;50.730;-1.932;2023-03-14T01:03:31;2;2;
49644;PMS5003;36494;50.730;-1.932;2023-03-14T01:08:22;0;0;
49644;PMS5003;36494;50.730;-1.932;2023-03-14T01:10:47;6;5;
49644;PMS5003;36494;50.730;-1.932;2023-03-14T01:13:13;4;4;
49644;PMS5003;36494;50.730;-1.932;2023-03-14T01:15:38;6;5;
49644;PMS5003;36494;50.730;-1.932;2023-03-14T01:18:04;7;7;
49644;PMS5003;36494;50.730;-1.932;2023-03-14T01:20:29;5;5;
49644;PMS5003;36494;50.730;-1.932;2023-03-14T01:22:55;11;11;
49644;PMS5003;36494;50.730;-1.932;2023-03-14T01:25:20;15;14;
49644;PMS5003;36494;50.730;-1.932;2023-03-14T01:27:46;11;11;
49644;PMS5003;36494;50.730;-1.932;2023-03-14T01:30:11;19;19;
49644;PMS5003;36494;50.730;-1.932;2023-03-14T01:32:37;6;5;
49644;PMS5003;36494;50.730;-1.932;2023-03-14T01:35:02;5;5;
49644;PMS5003;36494;50.730;-1.932;2023-03-14T01:37:28;5;3;
49644;PMS5003;36494;50.730;-1.932;2023-03-14T01:39:53;5;4;
49644;PMS5003;36494;50.730;-1.932;2023-03-14T01:42:18;4;3;
49644;PMS5003;36494;50.730;-1.932;2023-03-14T01:44:48;4;3;
49644;PMS5003;36494;50.730;-1.932;2023-03-14T01:47:09;2;2;
49644;PMS5003;36494;50.730;-1.932;2023-03-14T01:49:34;1;1;
49644;PMS5003;36494;50.730;-1.932;2023-03-14T01:52:00;3;3;
49644;PMS5003;36494;50.730;-1.932;2023-03-14T01:54:26;7;7;
49644;PMS5003;36494;50.730;-1.932;2023-03-14T01:56:51;7;7;
49644;PMS5003;36494;50.730;-1.932;2023-03-14T01:59:16;14;14;
49644;PMS5003;36494;50.730;-1.932;2023-03-14T02:01:43;16;14;
49644;PMS5003;36494;50.730;-1.932;2023-03-14T02:04:07;11;11;
49644;PMS5003;36494;50.730;-1.932;2023-03-14T02:06:34;12;12;
49644;PMS5003;36494;50.730;-1.932;2023-03-14T02:08:57;11;11;
49644;PMS5003;36494;50.730;-1.932;2023-03-14T02:11:24;11;11;
49644;PMS5003;36494;50.730;-1.932;2023-03-14T02:13:48;15;15;
49644;PMS5003;36494;50.730;-1.932;2023-03-14T02:16:14;33;33;
49644;PMS5003;36494;50.730;-1.932;2023-03-14T02:18:40;5;5;
49644;PMS5003;36494;50.730;-1.932;2023-03-14T02:21:07;24;24;
49644;PMS5003;36494;50.730;-1.932;2023-03-14T02:23:31;25;25;
49644;PMS5003;36494;50.730;-1.932;2023-03-14T02:25:57;78;78;
49644;PMS5003;36494;50.730;-1.932;2023-03-14T02:28:22;30;30;
49644;PMS5003;36494;50.730;-1.932;2023-03-14T02:30:47;37;36;
49644;PMS5003;36494;50.730;-1.932;2023-03-14T02:33:13;4;3;
49644;PMS5003;36494;50.730;-1.932;2023-03-14T02:35:40;2;1;
49644;PMS5003;36494;50.730;-1.932;2023-03-14T02:38:06;4;4;
49644;PMS5003;36494;50.730;-1.932;2023-03-14T02:40:29;3;3;
49644;PMS5003;36494;50.730;-1.932;2023-03-14T02:42:54;33;33;
49644;PMS5003;36494;50.730;-1.932;2023-03-14T02:47:46;1;1;
49644;PMS5003;36494;50.730;-1.932;2023-03-14T02:50:12;4;4;
49644;PMS5003;36494;50.730;-1.932;2023-03-14T02:52:36;4;3;
49644;PMS5003;36494;50.730;-1.932;2023-03-14T02:55:01;7;4;
49644;PMS5003;36494;50.730;-1.932;2023-03-14T02:57:26;2;2;
49644;PMS5003;36494;50.730;-1.932;2023-03-14T02:59:52;2;2;
49644;PMS5003;36494;50.730;-1.932;2023-03-14T03:02:17;3;3;
49644;PMS5003;36494;50.730;-1.932;2023-03-14T03:04:42;2;1;
49644;PMS5003;36494;50.730;-1.932;2023-03-14T03:07:08;1;1;
49644;PMS5003;36494;50.730;-1.932;2023-03-14T03:09:33;2;2;
49644;PMS5003;36494;50.730;-1.932;2023-03-14T03:11:59;3;2;
49644;PMS5003;36494;50.730;-1.932;2023-03-14T03:14:24;4;3;
49644;PMS5003;36494;50.730;-1.932;2023-03-14T03:16:49;3;3;
49644;PMS5003;36494;50.730;-1.932;2023-03-14T03:19:15;2;2;
49644;PMS5003;36494;50.730;-1.932;2023-03-14T03:21:40;3;3;
49644;PMS5003;36494;50.730;-1.932;2023-03-14T03:24:06;2;2;
49644;PMS5003;36494;50.730;-1.932;2023-03-14T03:26:31;3;3;
49644;PMS5003;36494;50.730;-1.932;2023-03-14T03:28:56;3;3;
49644;PMS5003;36494;50.730;-1.932;2023-03-14T03:31:22;3;2;
49644;PMS5003;36494;50.730;-1.932;2023-03-14T03:33:47;3;2;
49644;PMS5003;36494;50.730;-1.932;2023-03-14T03:36:13;3;2;
49644;PMS5003;36494;50.730;-1.932;2023-03-14T03:38:38;2;2;
49644;PMS5003;36494;50.730;-1.932;2023-03-14T03:41:04;3;2;
49644;PMS5003;36494;50.730;-1.932;2023-03-14T03:43:29;3;3;
49644;PMS5003;36494;50.730;-1.932;2023-03-14T03:45:54;5;5;
49644;PMS5003;36494;50.730;-1.932;2023-03-14T03:48:19;2;2;
49644;PMS5003;36494;50.730;-1.932;2023-03-14T03:50:45;3;2;
49644;PMS5003;36494;50.730;-1.932;2023-03-14T03:53:10;2;1;
49644;PMS5003;36494;50.730;-1.932;2023-03-14T03:55:36;5;5;
49644;PMS5003;36494;50.730;-1.932;2023-03-14T03:58:01;3;2;
49644;PMS5003;36494;50.730;-1.932;2023-03-14T04:00:27;6;5;
49644;PMS5003;36494;50.730;-1.932;2023-03-14T04:02:52;3;3;
49644;PMS5003;36494;50.730;-1.932;2023-03-14T04:05:17;1;1;
49644;PMS5003;36494;50.730;-1.932;2023-03-14T04:07:42;4;4;
49644;PMS5003;36494;50.730;-1.932;2023-03-14T04:10:08;1;1;
49644;PMS5003;36494;50.730;-1.932;2023-03-14T04:12:33;2;2;
49644;PMS5003;36494;50.730;-1.932;2023-03-14T04:14:58;2;2;
49644;PMS5003;36494;50.730;-1.932;2023-03-14T04:17:24;2;2;
49644;PMS5003;36494;50.730;-1.932;2023-03-14T04:19:49;2;1;
49644;PMS5003;36494;50.730;-1.932;2023-03-14T04:22:14;1;1;
49644;PMS5003;36494;50.730;-1.932;2023-03-14T04:24:39;3;3;
49644;PMS5003;36494;50.730;-1.932;2023-03-14T04:27:05;2;2;
49644;PMS5003;36494;50.730;-1.932;2023-03-14T04:29:30;3;3;
49644;PMS5003;36494;50.730;-1.932;2023-03-14T04:31:55;2;1;
49644;PMS5003;36494;50.730;-1.932;2023-03-14T04:34:21;3;3;
49644;PMS5003;36494;50.730;-1.932;2023-03-14T04:36:46;5;3;
49644;PMS5003;36494;50.730;-1.932;2023-03-14T04:39:12;4;3;
49644;PMS5003;36494;50.730;-1.932;2023-03-14T04:41:37;1;0;
49644;PMS5003;36494;50.730;-1.932;2023-03-14T04:44:03;2;2;
49644;PMS5003;36494;50.730;-1.932;2023-03-14T04:46:28;6;5;
49644;PMS5003;36494;50.730;-1.932;2023-03-14T04:48:53;2;2;
49644;PMS5003;36494;50.730;-1.932;2023-03-14T04:51:19;2;2;
49644;PMS5003;36494;50.730;-1.932;2023-03-14T04:53:44;3;3;
49644;PMS5003;36494;50.730;-1.932;2023-03-14T04:56:09;3;3;
49644;PMS5003;36494;50.730;-1.932;2023-03-14T04:58:34;4;2;
49644;PMS5003;36494;50.730;-1.932;2023-03-14T05:01:01;1;1;
49644;PMS5003;36494;50.730;-1.932;2023-03-14T05:03:26;1;0;
49644;PMS5003;36494;50.730;-1.932;2023-03-14T05:05:51;0;0;
49644;PMS5003;36494;50.730;-1.932;2023-03-14T05:08:16;2;2;
49644;PMS5003;36494;50.730;-1.932;2023-03-14T05:10:42;1;1;
49644;PMS5003;36494;50.730;-1.932;2023-03-14T05:13:07;1;1;
49644;PMS5003;36494;50.730;-1.932;2023-03-14T05:15:33;2;2;
49644;PMS5003;36494;50.730;-1.932;2023-03-14T05:17:58;3;2;
49644;PMS5003;36494;50.730;-1.932;2023-03-14T05:20:23;2;2;
49644;PMS5003;36494;50.730;-1.932;2023-03-14T05:22:49;2;1;
49644;PMS5003;36494;50.730;-1.932;2023-03-14T05:25:14;3;1;
49644;PMS5003;36494;50.730;-1.932;2023-03-14T05:27:40;0;0;
49644;PMS5003;36494;50.730;-1.932;2023-03-14T05:30:06;1;1;
49644;PMS5003;36494;50.730;-1.932;2023-03-14T05:32:31;1;1;
49644;PMS5003;36494;50.730;-1.932;2023-03-14T05:34:56;3;3;
49644;PMS5003;36494;50.730;-1.932;2023-03-14T05:37:21;1;1;
49644;PMS5003;36494;50.730;-1.932;2023-03-14T05:39:47;3;3;
49644;PMS5003;36494;50.730;-1.932;2023-03-14T05:42:12;1;1;
49644;PMS5003;36494;50.730;-1.932;2023-03-14T05:44:37;1;1;
49644;PMS5003;36494;50.730;-1.932;2023-03-14T05:47:02;9;7;
49644;PMS5003;36494;50.730;-1.932;2023-03-14T05:49:28;1;1;
49644;PMS5003;36494;50.730;-1.932;2023-03-14T05:51:54;3;2;
49644;PMS5003;36494;50.730;-1.932;2023-03-14T05:54:19;0;0;
49644;PMS5003;36494;50.730;-1.932;2023-03-14T05:56:44;2;2;
49644;PMS5003;36494;50.730;-1.932;2023-03-14T05:59:10;0;0;
49644;PMS5003;36494;50.730;-1.932;2023-03-14T06:01:35;2;2;
49644;PMS5003;36494;50.730;-1.932;2023-03-14T06:04:01;2;2;
49644;PMS5003;36494;50.730;-1.932;2023-03-14T06:06:26;3;2;
49644;PMS5003;36494;50.730;-1.932;2023-03-14T06:08:51;2;2;
49644;PMS5003;36494;50.730;-1.932;2023-03-14T06:11:17;2;2;
49644;PMS5003;36494;50.730;-1.932;2023-03-14T06:13:42;1;1;
49644;PMS5003;36494;50.730;-1.932;2023-03-14T06:16:08;2;2;
49644;PMS5003;36494;50.730;-1.932;2023-03-14T06:18:33;3;3;
49644;PMS5003;36494;50.730;-1.932;2023-03-14T06:20:58;3;3;
49644;PMS5003;36494;50.730;-1.932;2023-03-14T06:23:24;2;2;
49644;PMS5003;36494;50.730;-1.932;2023-03-14T06:25:50;1;1;
49644;PMS5003;36494;50.730;-1.932;2023-03-14T06:28:15;3;2;
49644;PMS5003;36494;50.730;-1.932;2023-03-14T06:30:40;2;2;
49644;PMS5003;36494;50.730;-1.932;2023-03-14T06:33:06;2;1;
49644;PMS5003;36494;50.730;-1.932;2023-03-14T06:35:31;1;1;
49644;PMS5003;36494;50.730;-1.932;2023-03-14T06:37:57;2;2;
49644;PMS5003;36494;50.730;-1.932;2023-03-14T06:40:22;2;2;
49644;PMS5003;36494;50.730;-1.932;2023-03-14T06:42:48;2;1;
49644;PMS5003;36494;50.730;-1.932;2023-03-14T06:45:13;2;2;
49644;PMS5003;36494;50.730;-1.932;2023-03-14T06:47:38;2;1;
49644;PMS5003;36494;50.730;-1.932;2023-03-14T06:50:04;0;0;
49644;PMS5003;36494;50.730;-1.932;2023-03-14T06:52:29;2;1;
49644;PMS5003;36494;50.730;-1.932;2023-03-14T06:54:54;3;3;
49644;PMS5003;36494;50.730;-1.932;2023-03-14T06:57:20;2;1;
49644;PMS5003;36494;50.730;-1.932;2023-03-14T06:59:45;2;2;
49644;PMS5003;36494;50.730;-1.932;2023-03-14T07:02:11;2;1;
49644;PMS5003;36494;50.730;-1.932;2023-03-14T07:04:36;2;2;
49644;PMS5003;36494;50.730;-1.932;2023-03-14T07:07:01;2;2;
49644;PMS5003;36494;50.730;-1.932;2023-03-14T07:09:27;0;0;
49644;PMS5003;36494;50.730;-1.932;2023-03-14T07:11:52;2;2;
49644;PMS5003;36494;50.730;-1.932;2023-03-14T07:14:18;0;0;
49644;PMS5003;36494;50.730;-1.932;2023-03-14T07:16:43;2;1;
49644;PMS5003;36494;50.730;-1.932;2023-03-14T07:19:09;5;1;
49644;PMS5003;36494;50.730;-1.932;2023-03-14T07:21:34;1;1;
49644;PMS5003;36494;50.730;-1.932;2023-03-14T07:24:00;0;0;
49644;PMS5003;36494;50.730;-1.932;2023-03-14T07:26:25;2;2;
49644;PMS5003;36494;50.730;-1.932;2023-03-14T07:28:51;1;1;
49644;PMS5003;36494;50.730;-1.932;2023-03-14T07:31:16;0;0;
49644;PMS5003;36494;50.730;-1.932;2023-03-14T07:33:41;0;0;
49644;PMS5003;36494;50.730;-1.932;2023-03-14T07:36:07;1;1;
49644;PMS5003;36494;50.730;-1.932;2023-03-14T07:38:32;0;0;
49644;PMS5003;36494;50.730;-1.932;2023-03-14T07:40:58;0;0;
49644;PMS5003;36494;50.730;-1.932;2023-03-14T07:43:23;1;1;
49644;PMS5003;36494;50.730;-1.932;2023-03-14T07:45:48;1;0;
49644;PMS5003;36494;50.730;-1.932;2023-03-14T07:48:14;0;0;
49644;PMS5003;36494;50.730;-1.932;2023-03-14T07:50:39;0;0;
49644;PMS5003;36494;50.730;-1.932;2023-03-14T07:53:05;1;1;
49644;PMS5003;36494;50.730;-1.932;2023-03-14T07:55:30;2;2;
49644;PMS5003;36494;50.730;-1.932;2023-03-14T07:57:56;0;0;
49644;PMS5003;36494;50.730;-1.932;2023-03-14T08:00:21;0;0;
49644;PMS5003;36494;50.730;-1.932;2023-03-14T08:02:47;0;0;
49644;PMS5003;36494;50.730;-1.932;2023-03-14T08:05:12;1;1;
49644;PMS5003;36494;50.730;-1.932;2023-03-14T08:07:37;1;0;
49644;PMS5003;36494;50.730;-1.932;2023-03-14T08:10:03;0;0;
49644;PMS5003;36494;50.730;-1.932;2023-03-14T08:12:28;2;2;
49644;PMS5003;36494;50.730;-1.932;2023-03-14T08:14:54;0;0;
49644;PMS5003;36494;50.730;-1.932;2023-03-14T08:17:19;1;1;
49644;PMS5003;36494;50.730;-1.932;2023-03-14T08:19:45;1;1;
49644;PMS5003;36494;50.730;-1.932;2023-03-14T08:22:10;1;1;
49644;PMS5003;36494;50.730;-1.932;2023-03-14T08:24:35;1;1;
49644;PMS5003;36494;50.730;-1.932;2023-03-14T08:27:01;1;1;
49644;PMS5003;36494;50.730;-1.932;2023-03-14T08:29:26;2;2;
49644;PMS5003;36494;50.730;-1.932;2023-03-14T08:31:51;0;0;
49644;PMS5003;36494;50.730;-1.932;2023-03-14T08:34:16;2;2;
49644;PMS5003;36494;50.730;-1.932;2023-03-14T08:36:42;2;2;
49644;PMS5003;36494;50.730;-1.932;2023-03-14T08:39:07;1;0;
49644;PMS5003;36494;50.730;-1.932;2023-03-14T08:41:33;0;0;
49644;PMS5003;36494;50.730;-1.932;2023-03-14T08:43:58;0;0;
49644;PMS5003;36494;50.730;-1.932;2023-03-14T08:46:24;1;0;
49644;PMS5003;36494;50.730;-1.932;2023-03-14T08:48:49;1;1;
49644;PMS5003;36494;50.730;-1.932;2023-03-14T08:51:14;0;0;
49644;PMS5003;36494;50.730;-1.932;2023-03-14T08:53:39;2;2;
49644;PMS5003;36494;50.730;-1.932;2023-03-14T08:56:05;3;1;
49644;PMS5003;36494;50.730;-1.932;2023-03-14T08:58:30;1;1;
49644;PMS5003;36494;50.730;-1.932;2023-03-14T09:00:56;1;1;
49644;PMS5003;36494;50.730;-1.932;2023-03-14T09:03:21;2;2;
49644;PMS5003;36494;50.730;-1.932;2023-03-14T09:05:46;2;2;
49644;PMS5003;36494;50.730;-1.932;2023-03-14T09:08:12;3;1;
49644;PMS5003;36494;50.730;-1.932;2023-03-14T09:10:37;2;2;
49644;PMS5003;36494;50.730;-1.932;2023-03-14T09:13:02;3;3;
49644;PMS5003;36494;50.730;-1.932;2023-03-14T09:15:28;3;3;
49644;PMS5003;36494;50.730;-1.932;2023-03-14T09:17:53;2;2;
49644;PMS5003;36494;50.730;-1.932;2023-03-14T09:20:18;1;1;
49644;PMS5003;36494;50.730;-1.932;2023-03-14T09:22:44;2;2;
49644;PMS5003;36494;50.730;-1.932;2023-03-14T09:25:09;1;1;
49644;PMS5003;36494;50.730;-1.932;2023-03-14T09:27:35;2;2;
49644;PMS5003;36494;50.730;-1.932;2023-03-14T09:30:00;3;3;
49644;PMS5003;36494;50.730;-1.932;2023-03-14T09:32:25;2;2;
49644;PMS5003;36494;50.730;-1.932;2023-03-14T09:34:51;1;1;
49644;PMS5003;36494;50.730;-1.932;2023-03-14T09:37:16;1;1;
49644;PMS5003;36494;50.730;-1.932;2023-03-14T09:39:42;3;3;
49644;PMS5003;36494;50.730;-1.932;2023-03-14T09:42:08;1;1;
49644;PMS5003;36494;50.730;-1.932;2023-03-14T09:44:33;2;2;
49644;PMS5003;36494;50.730;-1.932;2023-03-14T09:47:00;1;1;
49644;PMS5003;36494;50.730;-1.932;2023-03-14T09:49:25;1;1;
49644;PMS5003;36494;50.730;-1.932;2023-03-14T09:51:50;7;7;
49644;PMS5003;36494;50.730;-1.932;2023-03-14T09:54:17;18;18;
49644;PMS5003;36494;50.730;-1.932;2023-03-14T09:56:40;23;23;
49644;PMS5003;36494;50.730;-1.932;2023-03-14T09:59:05;23;20;
49644;PMS5003;36494;50.730;-1.932;2023-03-14T10:01:31;12;12;
49644;PMS5003;36494;50.730;-1.932;2023-03-14T10:03:57;20;20;
49644;PMS5003;36494;50.730;-1.932;2023-03-14T10:06:23;5;4;
49644;PMS5003;36494;50.730;-1.932;2023-03-14T10:08:47;5;5;
49644;PMS5003;36494;50.730;-1.932;2023-03-14T10:11:14;6;6;
49644;PMS5003;36494;50.730;-1.932;2023-03-14T10:16:04;5;5;
49644;PMS5003;36494;50.730;-1.932;2023-03-14T10:18:30;4;4;
49644;PMS5003;36494;50.730;-1.932;2023-03-14T10:23:22;19;19;
49644;PMS5003;36494;50.730;-1.932;2023-03-14T10:25:46;9;9;
49644;PMS5003;36494;50.730;-1.932;2023-03-14T10:28:14;16;16;
49644;PMS5003;36494;50.730;-1.932;2023-03-14T10:30:38;18;17;
49644;PMS5003;36494;50.730;-1.932;2023-03-14T10:33:07;13;13;
49644;PMS5003;36494;50.730;-1.932;2023-03-14T10:35:28;3;3;
49644;PMS5003;36494;50.730;-1.932;2023-03-14T10:37:54;6;6;
49644;PMS5003;36494;50.730;-1.932;2023-03-14T10:40:18;1;1;
49644;PMS5003;36494;50.730;-1.932;2023-03-14T10:42:44;0;0;
49644;PMS5003;36494;50.730;-1.932;2023-03-14T10:47:34;1;1;
49644;PMS5003;36494;50.730;-1.932;2023-03-14T10:52:26;0;0;
49644;PMS5003;36494;50.730;-1.932;2023-03-14T10:54:54;2;2;
49644;PMS5003;36494;50.730;-1.932;2023-03-14T10:57:18;2;2;
49644;PMS5003;36494;50.730;-1.932;2023-03-14T10:59:41;4;3;
49644;PMS5003;36494;50.730;-1.932;2023-03-14T11:02:10;0;0;
49644;PMS5003;36494;50.730;-1.932;2023-03-14T11:06:59;2;2;
49644;PMS5003;36494;50.730;-1.932;2023-03-14T11:09:24;2;2;
49644;PMS5003;36494;50.730;-1.932;2023-03-14T11:11:48;1;1;
49644;PMS5003;36494;50.730;-1.932;2023-03-14T11:14:17;1;1;
49644;PMS5003;36494;50.730;-1.932;2023-03-14T11:16:42;1;1;
49644;PMS5003;36494;50.730;-1.932;2023-03-14T11:21:32;1;1;
49644;PMS5003;36494;50.730;-1.932;2023-03-14T11:23:59;1;1;
49644;PMS5003;36494;50.730;-1.932;2023-03-14T11:26:25;1;1;
49644;PMS5003;36494;50.730;-1.932;2023-03-14T11:28:47;3;3;
49644;PMS5003;36494;50.730;-1.932;2023-03-14T11:31:13;3;3;
49644;PMS5003;36494;50.730;-1.932;2023-03-14T11:33:37;0;0;
49644;PMS5003;36494;50.730;-1.932;2023-03-14T11:36:03;0;0;
49644;PMS5003;36494;50.730;-1.932;2023-03-14T11:38:29;1;1;
49644;PMS5003;36494;50.730;-1.932;2023-03-14T11:40:53;1;1;
49644;PMS5003;36494;50.730;-1.932;2023-03-14T11:43:20;1;1;
49644;PMS5003;36494;50.730;-1.932;2023-03-14T11:45:44;0;0;
49644;PMS5003;36494;50.730;-1.932;2023-03-14T11:48:13;1;1;
49644;PMS5003;36494;50.730;-1.932;2023-03-14T11:50:34;1;1;
49644;PMS5003;36494;50.730;-1.932;2023-03-14T11:53:01;1;1;
49644;PMS5003;36494;50.730;-1.932;2023-03-14T11:55:26;0;0;
49644;PMS5003;36494;50.730;-1.932;2023-03-14T11:57:50;0;0;
49644;PMS5003;36494;50.730;-1.932;2023-03-14T12:00:16;0;0;
49644;PMS5003;36494;50.730;-1.932;2023-03-14T12:02:43;0;0;
49644;PMS5003;36494;50.730;-1.932;2023-03-14T12:07:33;0;0;
49644;PMS5003;36494;50.730;-1.932;2023-03-14T12:09:57;0;0;
49644;PMS5003;36494;50.730;-1.932;2023-03-14T12:12:23;0;0;
49644;PMS5003;36494;50.730;-1.932;2023-03-14T12:14:52;0;0;
49644;PMS5003;36494;50.730;-1.932;2023-03-14T12:17:18;0;0;
49644;PMS5003;36494;50.730;-1.932;2023-03-14T12:19:39;0;0;
49644;PMS5003;36494;50.730;-1.932;2023-03-14T12:22:08;0;0;
49644;PMS5003;36494;50.730;-1.932;2023-03-14T12:24:30;1;1;
49644;PMS5003;36494;50.730;-1.932;2023-03-14T12:26:55;1;1;
49644;PMS5003;36494;50.730;-1.932;2023-03-14T12:29:20;1;1;
49644;PMS5003;36494;50.730;-1.932;2023-03-14T12:31:46;1;1;
49644;PMS5003;36494;50.730;-1.932;2023-03-14T12:39:10;1;1;
49644;PMS5003;36494;50.730;-1.932;2023-03-14T12:41:28;0;0;
49644;PMS5003;36494;50.730;-1.932;2023-03-14T12:43:52;0;0;
49644;PMS5003;36494;50.730;-1.932;2023-03-14T12:46:22;1;1;
49644;PMS5003;36494;50.730;-1.932;2023-03-14T12:48:43;1;1;
49644;PMS5003;36494;50.730;-1.932;2023-03-14T12:51:12;0;0;
49644;PMS5003;36494;50.730;-1.932;2023-03-14T12:53:43;0;0;
49644;PMS5003;36494;50.730;-1.932;2023-03-14T12:56:01;0;0;
49644;PMS5003;36494;50.730;-1.932;2023-03-14T12:58:25;0;0;
49644;PMS5003;36494;50.730;-1.932;2023-03-14T13:00:51;0;0;
49644;PMS5003;36494;50.730;-1.932;2023-03-14T13:03:17;1;1;
49644;PMS5003;36494;50.730;-1.932;2023-03-14T13:08:06;0;0;
49644;PMS5003;36494;50.730;-1.932;2023-03-14T13:10:31;0;0;
49644;PMS5003;36494;50.730;-1.932;2023-03-14T13:12:57;0;0;
49644;PMS5003;36494;50.730;-1.932;2023-03-14T13:15:22;1;1;
49644;PMS5003;36494;50.730;-1.932;2023-03-14T13:17:47;1;1;
49644;PMS5003;36494;50.730;-1.932;2023-03-14T13:20:12;1;1;
49644;PMS5003;36494;50.730;-1.932;2023-03-14T13:22:37;1;1;
49644;PMS5003;36494;50.730;-1.932;2023-03-14T13:25:03;0;0;
49644;PMS5003;36494;50.730;-1.932;2023-03-14T13:27:29;0;0;
49644;PMS5003;36494;50.730;-1.932;2023-03-14T13:29:53;0;0;
49644;PMS5003;36494;50.730;-1.932;2023-03-14T13:32:19;0;0;
49644;PMS5003;36494;50.730;-1.932;2023-03-14T13:34:44;1;1;
49644;PMS5003;36494;50.730;-1.932;2023-03-14T13:37:14;1;1;
49644;PMS5003;36494;50.730;-1.932;2023-03-14T13:39:34;0;0;
49644;PMS5003;36494;50.730;-1.932;2023-03-14T13:42:00;2;2;
49644;PMS5003;36494;50.730;-1.932;2023-03-14T13:44:26;0;0;
49644;PMS5003;36494;50.730;-1.932;2023-03-14T13:46:50;1;1;
49644;PMS5003;36494;50.730;-1.932;2023-03-14T13:49:18;1;1;
49644;PMS5003;36494;50.730;-1.932;2023-03-14T13:51:41;1;1;
49644;PMS5003;36494;50.730;-1.932;2023-03-14T13:56:32;0;0;
49644;PMS5003;36494;50.730;-1.932;2023-03-14T13:58:57;0;0;
49644;PMS5003;36494;50.730;-1.932;2023-03-14T14:01:22;0;0;
49644;PMS5003;36494;50.730;-1.932;2023-03-14T14:03:48;1;1;
49644;PMS5003;36494;50.730;-1.932;2023-03-14T14:06:18;1;0;
49644;PMS5003;36494;50.730;-1.932;2023-03-14T14:08:40;0;0;
49644;PMS5003;36494;50.730;-1.932;2023-03-14T14:11:03;0;0;
49644;PMS5003;36494;50.730;-1.932;2023-03-14T14:13:29;1;1;
49644;PMS5003;36494;50.730;-1.932;2023-03-14T14:15:54;1;1;
49644;PMS5003;36494;50.730;-1.932;2023-03-14T14:18:20;1;1;
49644;PMS5003;36494;50.730;-1.932;2023-03-14T14:20:45;2;2;
49644;PMS5003;36494;50.730;-1.932;2023-03-14T14:23:10;2;1;
49644;PMS5003;36494;50.730;-1.932;2023-03-14T14:25:35;1;1;
49644;PMS5003;36494;50.730;-1.932;2023-03-14T14:28:13;2;2;
49644;PMS5003;36494;50.730;-1.932;2023-03-14T14:30:28;1;1;
49644;PMS5003;36494;50.730;-1.932;2023-03-14T14:32:51;1;1;
49644;PMS5003;36494;50.730;-1.932;2023-03-14T14:35:22;0;0;
49644;PMS5003;36494;50.730;-1.932;2023-03-14T14:37:42;0;0;
49644;PMS5003;36494;50.730;-1.932;2023-03-14T14:40:08;1;0;
49644;PMS5003;36494;50.730;-1.932;2023-03-14T14:42:32;2;1;
49644;PMS5003;36494;50.730;-1.932;2023-03-14T14:44:58;1;1;
49644;PMS5003;36494;50.730;-1.932;2023-03-14T14:47:24;0;0;
49644;PMS5003;36494;50.730;-1.932;2023-03-14T14:49:48;0;0;
49644;PMS5003;36494;50.730;-1.932;2023-03-14T14:52:14;1;1;
49644;PMS5003;36494;50.730;-1.932;2023-03-14T14:54:42;0;0;
49644;PMS5003;36494;50.730;-1.932;2023-03-14T14:57:05;0;0;
49644;PMS5003;36494;50.730;-1.932;2023-03-14T14:59:29;1;0;
49644;PMS5003;36494;50.730;-1.932;2023-03-14T15:01:55;2;2;
49644;PMS5003;36494;50.730;-1.932;2023-03-14T15:04:20;1;1;
49644;PMS5003;36494;50.730;-1.932;2023-03-14T15:06:46;1;1;
49644;PMS5003;36494;50.730;-1.932;2023-03-14T15:09:11;0;0;
49644;PMS5003;36494;50.730;-1.932;2023-03-14T15:11:36;0;0;
49644;PMS5003;36494;50.730;-1.932;2023-03-14T15:14:01;1;1;
49644;PMS5003;36494;50.730;-1.932;2023-03-14T15:16:28;0;0;
49644;PMS5003;36494;50.730;-1.932;2023-03-14T15:18:53;0;0;
49644;PMS5003;36494;50.730;-1.932;2023-03-14T15:21:17;1;1;
49644;PMS5003;36494;50.730;-1.932;2023-03-14T15:23:43;1;1;
49644;PMS5003;36494;50.730;-1.932;2023-03-14T15:26:10;2;2;
49644;PMS5003;36494;50.730;-1.932;2023-03-14T15:28:33;2;1;
49644;PMS5003;36494;50.730;-1.932;2023-03-14T15:30:59;0;0;
49644;PMS5003;36494;50.730;-1.932;2023-03-14T15:33:24;1;1;
49644;PMS5003;36494;50.730;-1.932;2023-03-14T15:35:49;0;0;
49644;PMS5003;36494;50.730;-1.932;2023-03-14T15:38:15;1;1;
49644;PMS5003;36494;50.730;-1.932;2023-03-14T15:40:40;1;1;
49644;PMS5003;36494;50.730;-1.932;2023-03-14T15:43:05;3;3;
49644;PMS5003;36494;50.730;-1.932;2023-03-14T15:45:31;1;1;
49644;PMS5003;36494;50.730;-1.932;2023-03-14T15:47:56;2;2;
49644;PMS5003;36494;50.730;-1.932;2023-03-14T15:50:22;4;4;
49644;PMS5003;36494;50.730;-1.932;2023-03-14T15:52:47;1;1;
49644;PMS5003;36494;50.730;-1.932;2023-03-14T15:55:12;1;1;
49644;PMS5003;36494;50.730;-1.932;2023-03-14T15:57:37;1;1;
49644;PMS5003;36494;50.730;-1.932;2023-03-14T16:00:03;1;1;
49644;PMS5003;36494;50.730;-1.932;2023-03-14T16:02:28;1;0;
49644;PMS5003;36494;50.730;-1.932;2023-03-14T16:04:53;1;1;
49644;PMS5003;36494;50.730;-1.932;2023-03-14T16:07:19;2;2;
49644;PMS5003;36494;50.730;-1.932;2023-03-14T16:09:44;1;1;
49644;PMS5003;36494;50.730;-1.932;2023-03-14T16:12:09;1;1;
49644;PMS5003;36494;50.730;-1.932;2023-03-14T16:14:35;2;2;
49644;PMS5003;36494;50.730;-1.932;2023-03-14T16:17:00;1;0;
49644;PMS5003;36494;50.730;-1.932;2023-03-14T16:19:26;1;1;
49644;PMS5003;36494;50.730;-1.932;2023-03-14T16:21:51;1;1;
49644;PMS5003;36494;50.730;-1.932;2023-03-14T16:24:16;1;1;
49644;PMS5003;36494;50.730;-1.932;2023-03-14T16:26:42;0;0;
49644;PMS5003;36494;50.730;-1.932;2023-03-14T16:29:07;2;1;
49644;PMS5003;36494;50.730;-1.932;2023-03-14T16:31:32;0;0;
49644;PMS5003;36494;50.730;-1.932;2023-03-14T16:34:00;1;1;
49644;PMS5003;36494;50.730;-1.932;2023-03-14T16:36:23;1;1;
49644;PMS5003;36494;50.730;-1.932;2023-03-14T16:38:48;0;0;
49644;PMS5003;36494;50.730;-1.932;2023-03-14T16:41:15;2;1;
49644;PMS5003;36494;50.730;-1.932;2023-03-14T16:43:39;2;2;
49644;PMS5003;36494;50.730;-1.932;2023-03-14T16:46:05;0;0;
49644;PMS5003;36494;50.730;-1.932;2023-03-14T16:48:30;1;1;